createdAt,value
2018-01-24T00:01:41.378Z,67.50
2018-01-24T00:04:09.602Z,67.70
2018-01-24T00:06:37.040Z,67.70
2018-01-24T00:09:04.519Z,68.00
2018-01-24T00:11:31.967Z,67.90
2018-01-24T00:13:59.415Z,68.00
2018-01-24T00:16:26.871Z,67.60
2018-01-24T00:18:54.322Z,68.10
2018-01-24T00:21:21.776Z,68.70
2018-01-24T00:23:49.234Z,68.30
2018-01-24T00:26:16.693Z,68.50
2018-01-24T00:28:44.146Z,69.40
2018-01-24T00:31:11.588Z,69.00
2018-01-24T00:33:39.033Z,68.60
2018-01-24T00:36:07.232Z,68.80
2018-01-24T00:38:34.686Z,68.80
2018-01-24T00:41:02.140Z,68.70
2018-01-24T00:43:29.598Z,69.00
2018-01-24T00:45:57.052Z,68.90
2018-01-24T00:48:24.498Z,69.00
2018-01-24T00:50:51.935Z,68.40
2018-01-24T00:53:20.157Z,68.50
2018-01-24T00:55:47.607Z,68.50
2018-01-24T00:58:15.055Z,68.80
2018-01-24T01:00:42.503Z,69.00
2018-01-24T01:03:09.959Z,70.30
2018-01-24T01:05:37.399Z,69.90
2018-01-24T01:08:04.852Z,70.70
2018-01-24T01:10:33.062Z,71.00
2018-01-24T01:13:00.530Z,70.90
2018-01-24T01:15:27.974Z,70.10
2018-01-24T01:17:55.423Z,70.40
2018-01-24T01:20:22.878Z,70.40
2018-01-24T01:22:50.332Z,70.20
2018-01-24T01:25:17.786Z,71.00
2018-01-24T01:27:45.236Z,71.30
2018-01-24T01:30:12.679Z,71.80
2018-01-24T01:32:40.123Z,72.40
2018-01-24T01:35:08.342Z,72.00
2018-01-24T01:37:35.786Z,72.00
2018-01-24T01:40:03.242Z,72.20
2018-01-24T01:42:30.698Z,72.30
2018-01-24T01:44:58.152Z,72.00
2018-01-24T01:47:25.607Z,71.60
2018-01-24T01:49:53.068Z,71.20
2018-01-24T01:52:20.514Z,72.10
2018-01-24T01:54:47.958Z,72.00
2018-01-24T01:57:15.404Z,72.20
2018-01-24T01:59:43.615Z,73.30
2018-01-24T02:02:11.062Z,73.30
2018-01-24T02:04:38.531Z,72.50
2018-01-24T02:07:05.979Z,72.50
2018-01-24T02:09:33.430Z,72.60
2018-01-24T02:12:00.888Z,72.10
2018-01-24T02:14:28.344Z,71.90
2018-01-24T02:16:55.799Z,72.10
2018-01-24T02:19:23.260Z,72.00
2018-01-24T02:21:50.699Z,71.80
2018-01-24T02:24:18.160Z,71.20
2018-01-24T02:26:45.604Z,71.90
2018-01-24T02:29:13.052Z,71.50
2018-01-24T02:31:40.505Z,71.30
2018-01-24T02:34:08.711Z,71.90
2018-01-24T02:36:36.163Z,71.20
2018-01-24T02:39:15.487Z,71.10
2018-01-24T02:41:42.945Z,71.40
2018-01-24T02:44:10.386Z,72.10
2018-01-24T02:46:38.607Z,71.30
2018-01-24T02:49:06.048Z,71.30
2018-01-24T02:51:33.519Z,71.50
2018-01-24T02:54:00.955Z,71.50
2018-01-24T02:56:28.411Z,72.20
2018-01-24T02:58:55.864Z,72.70
2018-01-24T03:01:23.326Z,72.50
2018-01-24T03:03:50.778Z,72.20
2018-01-24T03:06:18.231Z,72.10
2018-01-24T03:08:45.687Z,71.80
2018-01-24T03:11:13.143Z,71.90
2018-01-24T03:13:40.587Z,72.60
2018-01-24T03:16:08.034Z,73.00
2018-01-24T03:18:35.474Z,73.10
2018-01-24T03:21:03.692Z,73.90
2018-01-24T03:23:31.143Z,73.90
2018-01-24T03:25:58.612Z,74.10
2018-01-24T03:28:26.067Z,73.30
2018-01-24T03:30:53.511Z,73.20
2018-01-24T03:33:20.969Z,73.50
2018-01-24T03:35:48.430Z,73.30
2018-01-24T03:38:15.879Z,73.90
2018-01-24T03:40:43.338Z,73.60
2018-01-24T03:43:10.791Z,74.00
2018-01-24T03:45:38.250Z,73.50
2018-01-24T03:48:05.711Z,73.90
2018-01-24T03:50:33.172Z,74.00
2018-01-24T03:53:00.611Z,74.20
2018-01-24T03:55:28.042Z,74.00
2018-01-24T03:57:56.259Z,74.10
2018-01-24T04:00:23.707Z,74.00
2018-01-24T04:02:51.161Z,74.00
2018-01-24T04:05:18.618Z,74.10
2018-01-24T04:07:46.076Z,74.50
2018-01-24T04:10:13.532Z,74.40
2018-01-24T04:12:40.993Z,74.70
2018-01-24T04:15:08.472Z,74.60
2018-01-24T04:17:35.944Z,75.00
2018-01-24T04:20:03.398Z,74.70
2018-01-24T04:22:30.863Z,74.20
2018-01-24T04:24:58.323Z,73.20
2018-01-24T04:27:25.778Z,73.60
2018-01-24T04:29:53.239Z,73.60
2018-01-24T04:32:20.703Z,74.10
2018-01-24T04:34:48.992Z,74.00
2018-01-24T04:37:16.495Z,74.00
2018-01-24T04:39:43.950Z,74.30
2018-01-24T04:42:11.407Z,74.00
2018-01-24T04:44:38.843Z,74.50
2018-01-24T04:47:06.300Z,74.80
2018-01-24T04:49:33.756Z,74.90
2018-01-24T04:52:01.225Z,74.70
2018-01-24T04:54:28.666Z,74.80
2018-01-24T04:56:56.124Z,75.00
2018-01-24T04:59:23.579Z,75.00
2018-01-24T05:01:51.049Z,75.40
2018-01-24T05:04:18.488Z,75.50
2018-01-24T05:06:45.930Z,75.60
2018-01-24T05:09:13.380Z,75.80
2018-01-24T05:11:40.823Z,75.90
2018-01-24T05:14:09.034Z,75.80
2018-01-24T05:16:36.485Z,75.80
2018-01-24T05:19:03.947Z,75.90
2018-01-24T05:21:32.172Z,75.90
2018-01-24T05:23:59.624Z,73.50
2018-01-24T05:26:27.070Z,73.50
2018-01-24T05:28:54.512Z,74.10
2018-01-24T05:31:21.995Z,74.70
2018-01-24T05:33:49.450Z,75.20
2018-01-24T05:36:16.887Z,76.00
2018-01-24T05:38:44.338Z,76.00
2018-01-24T05:41:11.786Z,75.70
2018-01-24T05:43:39.234Z,75.20
2018-01-24T05:46:06.679Z,75.60
2018-01-24T05:48:34.135Z,76.00
2018-01-24T05:51:01.583Z,76.60
2018-01-24T05:53:29.025Z,76.60
2018-01-24T05:55:56.468Z,77.00
2018-01-24T05:58:23.926Z,77.10
2018-01-24T06:00:51.367Z,77.30
2018-01-24T06:03:18.819Z,77.70
2018-01-24T06:05:46.259Z,77.70
2018-01-24T06:08:13.721Z,77.70
2018-01-24T06:10:41.168Z,77.90
2018-01-24T06:13:08.618Z,78.00
2018-01-24T06:15:36.075Z,78.20
2018-01-24T06:18:03.519Z,79.20
2018-01-24T06:20:30.971Z,79.50
2018-01-24T06:22:58.421Z,78.90
2018-01-24T06:25:25.879Z,79.10
2018-01-24T06:27:53.312Z,80.30
2018-01-24T06:30:20.759Z,79.90
2018-01-24T06:32:48.198Z,80.10
2018-01-24T06:35:16.427Z,81.60
2018-01-24T06:37:43.870Z,80.80
2018-01-24T06:40:11.326Z,81.10
2018-01-24T06:42:38.762Z,81.50
2018-01-24T06:45:06.207Z,81.50
2018-01-24T06:47:34.412Z,81.50
2018-01-24T06:50:01.871Z,81.50
2018-01-24T06:52:29.325Z,81.80
2018-01-24T06:54:56.763Z,82.30
2018-01-24T06:57:24.206Z,82.30
2018-01-24T06:59:52.435Z,83.00
2018-01-24T07:02:19.883Z,83.00
2018-01-24T07:04:47.334Z,83.10
2018-01-24T07:07:14.782Z,83.40
2018-01-24T07:09:42.235Z,83.50
2018-01-24T07:12:21.647Z,83.60
2018-01-24T07:14:49.867Z,84.10
2018-01-24T07:17:17.314Z,84.10
2018-01-24T07:19:44.772Z,84.20
2018-01-24T07:22:12.218Z,84.20
2018-01-24T07:24:39.675Z,84.20
2018-01-24T07:27:07.128Z,84.30
2018-01-24T07:29:35.342Z,84.60
2018-01-24T07:32:02.782Z,84.60
2018-01-24T07:34:30.247Z,84.30
2018-01-24T07:36:57.687Z,84.30
2018-01-24T07:39:25.130Z,84.30
2018-01-24T07:41:52.584Z,84.00
2018-01-24T07:44:20.043Z,83.70
2018-01-24T07:46:47.496Z,83.80
2018-01-24T07:49:14.943Z,83.50
2018-01-24T07:51:42.399Z,83.00
2018-01-24T07:54:09.843Z,82.90
2018-01-24T07:56:37.291Z,82.80
2018-01-24T07:59:05.503Z,82.80
2018-01-24T08:01:32.958Z,82.80
2018-01-24T08:04:00.410Z,82.00
2018-01-24T08:06:27.858Z,81.10
2018-01-24T08:08:55.315Z,80.40
2018-01-24T08:11:22.776Z,78.80
2018-01-24T08:13:50.227Z,77.10
2018-01-24T08:16:17.684Z,76.20
2018-01-24T08:18:45.139Z,74.90
2018-01-24T08:21:12.611Z,73.80
2018-01-24T08:23:40.058Z,72.70
2018-01-24T08:26:07.512Z,69.70
2018-01-24T08:28:34.966Z,67.70
2018-01-24T08:31:02.422Z,67.90
2018-01-24T08:33:29.878Z,68.40
2018-01-24T08:35:57.348Z,67.80
2018-01-24T08:38:24.791Z,68.10
2018-01-24T08:40:52.248Z,68.10
2018-01-24T08:43:19.702Z,68.20
2018-01-24T08:45:47.161Z,69.60
2018-01-24T08:48:14.598Z,71.00
2018-01-24T08:50:42.044Z,72.00
2018-01-24T08:53:09.492Z,72.80
2018-01-24T08:55:37.702Z,72.90
2018-01-24T08:58:05.214Z,72.90
2018-01-24T09:00:50.350Z,73.50
2018-01-24T09:03:35.547Z,73.70
2018-01-24T09:06:20.691Z,74.00
2018-01-24T09:09:05.864Z,73.40
2018-01-24T09:11:50.908Z,73.30
2018-01-24T09:14:36.084Z,74.30
2018-01-24T09:17:21.196Z,74.30
2018-01-24T09:20:06.394Z,74.60
2018-01-24T09:23:00.057Z,74.80
2018-01-24T09:25:27.467Z,74.80
2018-01-24T09:27:54.920Z,73.50
2018-01-24T09:30:22.362Z,73.80
2018-01-24T09:32:49.819Z,74.20
2018-01-24T09:35:17.271Z,73.20
2018-01-24T09:37:44.732Z,73.20
2018-01-24T09:40:12.188Z,71.20
2018-01-24T09:42:39.643Z,71.00
2018-01-24T09:45:07.104Z,70.70
2018-01-24T09:47:34.563Z,68.30
2018-01-24T09:50:02.032Z,66.60
2018-01-24T09:52:29.488Z,66.30
2018-01-24T09:54:56.945Z,64.30
2018-01-24T09:57:24.402Z,61.00
2018-01-24T09:59:51.847Z,61.20
2018-01-24T10:02:19.291Z,58.70
2018-01-24T10:04:46.747Z,57.60
2018-01-24T10:07:14.204Z,56.00
2018-01-24T10:09:41.656Z,54.50
2018-01-24T10:12:09.115Z,52.60
2018-01-24T10:14:36.574Z,52.90
2018-01-24T10:17:04.026Z,51.20
2018-01-24T10:19:31.485Z,52.10
2018-01-24T10:21:59.696Z,53.00
2018-01-24T10:24:27.150Z,53.00
2018-01-24T10:26:54.607Z,52.70
2018-01-24T10:29:22.059Z,54.20
2018-01-24T10:31:49.516Z,55.00
2018-01-24T10:34:16.974Z,54.50
2018-01-24T10:36:44.433Z,53.80
2018-01-24T10:39:11.886Z,52.80
2018-01-24T10:41:39.343Z,53.30
2018-01-24T10:44:06.800Z,52.40
2018-01-24T10:46:34.246Z,52.60
2018-01-24T10:49:01.704Z,53.60
2018-01-24T10:51:29.151Z,54.30
2018-01-24T10:53:56.614Z,54.50
2018-01-24T10:56:24.056Z,55.30
2018-01-24T10:58:51.511Z,56.00
2018-01-24T11:01:18.962Z,55.00
2018-01-24T11:03:46.413Z,53.20
2018-01-24T11:06:13.870Z,53.30
2018-01-24T11:08:41.331Z,52.00
2018-01-24T11:11:08.783Z,51.30
2018-01-24T11:13:36.230Z,52.20
2018-01-24T11:16:03.690Z,52.30
2018-01-24T11:18:31.144Z,52.00
2018-01-24T11:20:58.598Z,52.30
2018-01-24T11:23:26.058Z,49.90
2018-01-24T11:25:54.283Z,49.10
2018-01-24T11:28:21.735Z,49.10
2018-01-24T11:30:49.198Z,48.60
2018-01-24T11:33:16.643Z,49.10
2018-01-24T11:35:44.104Z,51.40
2018-01-24T11:38:11.547Z,50.20
2018-01-24T11:40:39.008Z,49.20
2018-01-24T11:43:06.459Z,48.90
2018-01-24T11:45:33.919Z,49.80
2018-01-24T11:48:01.372Z,49.20
2018-01-24T11:50:28.831Z,50.70
2018-01-24T11:52:56.278Z,51.10
2018-01-24T11:55:23.741Z,50.90
2018-01-24T11:57:51.200Z,51.80
2018-01-24T12:00:18.660Z,53.70
2018-01-24T12:02:46.111Z,53.10
2018-01-24T12:05:13.568Z,53.10
2018-01-24T12:07:41.024Z,52.90
2018-01-24T12:10:08.491Z,53.00
2018-01-24T12:12:35.947Z,52.80
2018-01-24T12:15:03.393Z,53.50
2018-01-24T12:17:30.849Z,52.20
2018-01-24T12:19:58.306Z,52.90
2018-01-24T12:22:25.754Z,52.60
2018-01-24T12:24:53.222Z,52.70
2018-01-24T12:27:20.679Z,52.70
2018-01-24T12:29:48.135Z,52.90
2018-01-24T12:32:15.587Z,52.70
2018-01-24T12:34:43.040Z,52.00
2018-01-24T12:37:10.500Z,51.90
2018-01-24T12:39:37.946Z,50.50
2018-01-24T12:42:05.410Z,51.10
2018-01-24T12:44:32.865Z,50.10
2018-01-24T12:47:00.315Z,50.80
2018-01-24T12:49:27.779Z,52.10
2018-01-24T12:51:55.241Z,50.70
2018-01-24T12:54:22.688Z,50.60
2018-01-24T12:56:50.146Z,49.70
2018-01-24T12:59:17.599Z,49.80
2018-01-24T13:01:45.090Z,49.50
2018-01-24T13:04:12.508Z,50.50
2018-01-24T13:06:39.965Z,49.50
2018-01-24T13:09:07.410Z,50.00
2018-01-24T13:11:34.862Z,51.70
2018-01-24T13:14:02.319Z,51.30
2018-01-24T13:16:29.774Z,50.50
2018-01-24T13:18:57.224Z,50.70
2018-01-24T13:21:24.695Z,51.20
2018-01-24T13:23:52.131Z,51.20
2018-01-24T13:26:19.590Z,52.70
2018-01-24T13:28:47.048Z,51.20
2018-01-24T13:31:14.499Z,50.90
2018-01-24T13:33:41.947Z,50.90
2018-01-24T13:36:09.399Z,50.80
2018-01-24T13:38:36.859Z,49.50
2018-01-24T13:41:04.316Z,50.30
2018-01-24T13:43:31.775Z,51.50
2018-01-24T13:45:59.235Z,50.60
2018-01-24T13:48:26.688Z,50.40
2018-01-24T13:50:54.141Z,51.10
2018-01-24T13:53:21.594Z,51.70
2018-01-24T13:55:49.052Z,52.10
2018-01-24T13:58:16.507Z,51.60
2018-01-24T14:00:43.963Z,52.00
2018-01-24T14:03:11.419Z,53.10
2018-01-24T14:05:39.634Z,53.30
2018-01-24T14:08:07.093Z,53.30
2018-01-24T14:10:34.951Z,54.00
2018-01-24T14:13:02.407Z,54.40
2018-01-24T14:15:29.863Z,54.50
2018-01-24T14:17:57.319Z,54.50
2018-01-24T14:20:24.763Z,54.60
2018-01-24T14:22:52.224Z,54.30
2018-01-24T14:25:19.724Z,55.40
2018-01-24T14:27:47.167Z,56.80
2018-01-24T14:30:15.395Z,57.00
2018-01-24T14:32:42.852Z,56.90
2018-01-24T14:35:10.296Z,56.40
2018-01-24T14:37:37.751Z,57.80
2018-01-24T14:40:05.199Z,58.20
2018-01-24T14:42:32.643Z,59.40
2018-01-24T14:45:00.101Z,58.50
2018-01-24T14:47:27.546Z,58.00
2018-01-24T14:49:55.759Z,58.50
2018-01-24T14:52:23.231Z,58.50
2018-01-24T14:54:50.690Z,59.60
2018-01-24T14:57:18.135Z,59.90
2018-01-24T14:59:45.600Z,59.60
2018-01-24T15:02:13.043Z,59.60
2018-01-24T15:04:40.501Z,60.80
2018-01-24T15:07:07.951Z,61.60
2018-01-24T15:09:35.402Z,61.20
2018-01-24T15:12:02.875Z,62.30
2018-01-24T15:14:30.331Z,62.70
2018-01-24T15:16:57.784Z,61.90
2018-01-24T15:19:25.244Z,62.60
2018-01-24T15:21:52.699Z,62.50
2018-01-24T15:24:22.058Z,62.50
2018-01-24T15:26:49.507Z,63.10
2018-01-24T15:29:17.734Z,64.60
2018-01-24T15:31:45.180Z,64.60
2018-01-24T15:34:12.639Z,66.60
2018-01-24T15:36:40.083Z,66.20
2018-01-24T15:39:07.531Z,66.90
2018-01-24T15:41:34.987Z,67.50
2018-01-24T15:44:02.456Z,68.70
2018-01-24T15:46:29.904Z,69.40
2018-01-24T15:48:57.364Z,70.50
2018-01-24T15:51:24.811Z,71.00
2018-01-24T15:53:52.271Z,71.80
2018-01-24T15:56:19.729Z,72.10
2018-01-24T15:58:47.183Z,73.00
2018-01-24T16:01:14.635Z,74.00
2018-01-24T16:03:42.079Z,74.80
2018-01-24T16:06:09.550Z,75.20
2018-01-24T16:08:37.760Z,77.10
2018-01-24T16:11:05.211Z,77.10
2018-01-24T16:13:32.661Z,77.90
2018-01-24T16:16:00.116Z,79.20
2018-01-24T16:18:27.572Z,79.50
2018-01-24T16:20:55.020Z,79.80
2018-01-24T16:23:22.467Z,80.40
2018-01-24T16:25:49.915Z,80.90
2018-01-24T16:28:17.371Z,81.20
2018-01-24T16:30:44.827Z,81.60
2018-01-24T16:33:12.267Z,82.00
2018-01-24T16:35:39.720Z,82.30
2018-01-24T16:38:07.162Z,82.70
2018-01-24T16:40:35.379Z,82.50
2018-01-24T16:43:02.824Z,82.40
2018-01-24T16:45:30.279Z,82.40
2018-01-24T16:47:57.723Z,82.60
2018-01-24T16:50:25.170Z,82.30
2018-01-24T16:52:52.621Z,81.90
2018-01-24T16:55:20.076Z,82.70
2018-01-24T16:57:48.284Z,83.10
2018-01-24T17:00:15.739Z,83.00
2018-01-24T17:02:43.207Z,82.50
2018-01-24T17:05:10.665Z,82.90
2018-01-24T17:07:38.107Z,82.90
2018-01-24T17:10:05.559Z,83.00
2018-01-24T17:12:32.999Z,82.90
2018-01-24T17:15:00.455Z,83.20
2018-01-24T17:17:27.903Z,83.00
2018-01-24T17:19:56.159Z,83.60
2018-01-24T17:22:23.619Z,83.60
2018-01-24T17:24:51.837Z,80.90
2018-01-24T17:27:19.292Z,80.90
2018-01-24T17:29:46.743Z,80.00
2018-01-24T17:32:14.195Z,81.70
2018-01-24T17:34:41.638Z,82.30
2018-01-24T17:37:09.096Z,79.10
2018-01-24T17:39:36.540Z,79.90
2018-01-24T17:42:04.759Z,81.20
2018-01-24T17:44:32.200Z,81.20
2018-01-24T17:46:59.660Z,82.00
2018-01-24T17:49:27.150Z,82.20
2018-01-24T17:51:54.608Z,82.70
2018-01-24T17:54:22.057Z,82.70
2018-01-24T17:56:49.512Z,82.70
2018-01-24T17:59:16.960Z,82.70
2018-01-24T18:01:44.463Z,83.20
2018-01-24T18:04:12.668Z,84.20
2018-01-24T18:06:40.178Z,84.20
2018-01-24T18:09:07.626Z,83.00
2018-01-24T18:11:35.083Z,83.50
2018-01-24T18:14:02.536Z,84.10
2018-01-24T18:16:30.046Z,84.40
2018-01-24T18:18:57.548Z,84.00
2018-01-24T18:21:25.064Z,84.10
2018-01-24T18:23:52.575Z,84.20
2018-01-24T18:26:20.078Z,84.60
2018-01-24T18:28:47.586Z,85.60
2018-01-24T18:31:15.070Z,85.60
2018-01-24T18:33:43.341Z,86.30
2018-01-24T18:36:11.619Z,86.70
2018-01-24T18:38:39.895Z,86.80
2018-01-24T18:41:08.169Z,87.50
2018-01-24T18:43:36.396Z,87.80
2018-01-24T18:46:03.935Z,87.80
2018-01-24T18:48:31.553Z,87.90
2018-01-24T18:50:59.070Z,88.00
2018-01-24T18:53:26.574Z,87.70
2018-01-24T18:55:54.870Z,87.50
2018-01-24T18:58:22.347Z,87.50
2018-01-24T19:00:49.826Z,87.00
2018-01-24T19:03:17.382Z,87.10
2018-01-24T19:05:44.866Z,87.40
2018-01-24T19:08:12.314Z,87.80
2018-01-24T19:10:39.759Z,87.70
2018-01-24T19:13:07.240Z,88.30
2018-01-24T19:15:35.475Z,88.50
2018-01-24T19:18:02.982Z,88.50
2018-01-24T19:20:30.434Z,89.20
2018-01-24T19:22:58.708Z,89.20
2018-01-24T19:25:26.955Z,89.10
2018-01-24T19:27:54.489Z,89.10
2018-01-24T19:30:21.931Z,88.30
2018-01-24T19:32:49.500Z,88.20
2018-01-24T19:35:18.046Z,88.20
2018-01-24T19:37:46.319Z,87.30
2018-01-24T19:40:13.803Z,87.20
2018-01-24T19:42:41.262Z,87.80
2018-01-24T19:45:08.800Z,88.10
2018-01-24T19:47:36.271Z,88.10
2018-01-24T19:50:03.737Z,87.60
2018-01-24T19:52:32.063Z,87.40
2018-01-24T19:54:59.570Z,86.90
2018-01-24T19:57:27.019Z,87.00
2018-01-24T19:59:54.554Z,86.80
2018-01-24T20:02:22.778Z,87.00
2018-01-24T20:04:50.239Z,87.00
2018-01-24T20:07:17.725Z,86.40
2018-01-24T20:09:45.275Z,86.10
2018-01-24T20:12:13.523Z,86.10
2018-01-24T20:14:41.028Z,86.10
2018-01-24T20:17:09.239Z,85.90
2018-01-24T20:19:36.699Z,85.90
2018-01-24T20:22:04.144Z,86.30
2018-01-24T20:24:31.602Z,86.70
2018-01-24T20:26:59.063Z,86.50
2018-01-24T20:29:26.578Z,86.90
2018-01-24T20:31:54.848Z,86.80
2018-01-24T20:34:23.099Z,87.10
2018-01-24T20:36:50.607Z,87.10
2018-01-24T20:39:18.671Z,87.70
2018-01-24T20:41:46.201Z,87.60
2018-01-24T20:44:14.500Z,88.70
2018-01-24T20:46:42.005Z,88.60
2018-01-24T20:49:10.211Z,89.10
2018-01-24T20:51:38.754Z,88.90
2018-01-24T20:54:06.281Z,88.80
2018-01-24T20:56:33.733Z,88.90
2018-01-24T20:59:01.228Z,88.90
2018-01-24T21:01:28.724Z,89.60
2018-01-24T21:03:56.226Z,89.60
2018-01-24T21:06:23.697Z,89.70
2018-01-24T21:08:51.186Z,89.40
2018-01-24T21:11:18.684Z,90.00
2018-01-24T21:13:46.129Z,90.00
2018-01-24T21:16:13.632Z,89.80
2018-01-24T21:18:41.184Z,89.40
2018-01-24T21:21:08.645Z,90.00
2018-01-24T21:23:36.116Z,89.80
2018-01-24T21:26:03.584Z,89.40
2018-01-24T21:31:48.379Z,89.10
2018-01-24T21:37:14.399Z,89.00
2018-01-24T21:39:41.879Z,89.60
2018-01-24T21:42:10.150Z,89.90
2018-01-24T21:44:38.448Z,90.00
2018-01-24T21:47:05.925Z,89.90
2018-01-24T21:49:33.633Z,89.40
2018-01-24T21:52:01.192Z,89.20
2018-01-24T21:54:28.694Z,89.00
2018-01-24T21:56:56.164Z,88.80
2018-01-24T21:59:23.727Z,88.50
2018-01-24T22:01:51.203Z,89.10
2018-01-24T22:04:18.665Z,88.70
2018-01-24T22:06:46.197Z,88.40
2018-01-24T22:09:13.711Z,88.10
2018-01-24T22:11:41.524Z,88.40
2018-01-24T22:14:08.984Z,88.80
2018-01-24T22:16:36.447Z,88.60
2018-01-24T22:19:03.907Z,88.60
2018-01-24T22:21:31.405Z,88.60
2018-01-24T22:23:59.851Z,88.60
2018-01-24T22:26:27.290Z,88.50
2018-01-24T22:28:55.008Z,88.60
2018-01-24T22:31:23.245Z,89.30
2018-01-24T22:33:50.702Z,89.30
2018-01-24T22:36:18.160Z,89.10
2018-01-24T22:38:45.607Z,88.90
2018-01-24T22:41:13.056Z,88.70
2018-01-24T22:43:40.544Z,88.30
2018-01-24T22:46:08.033Z,88.30
2018-01-24T22:48:35.470Z,88.00
2018-01-24T22:51:03.746Z,87.90
2018-01-24T22:53:31.159Z,87.90
2018-01-24T22:55:58.604Z,87.20
2018-01-24T22:58:26.051Z,87.10
2018-01-24T23:00:53.511Z,86.70
2018-01-24T23:03:20.959Z,86.80
2018-01-24T23:05:48.415Z,87.00
2018-01-24T23:08:15.875Z,87.50
2018-01-24T23:10:43.326Z,87.80
2018-01-24T23:13:10.782Z,87.90
2018-01-24T23:15:38.223Z,88.00
2018-01-24T23:18:05.687Z,88.00
2018-01-24T23:20:33.123Z,88.10
2018-01-24T23:23:01.342Z,87.50
2018-01-24T23:25:28.783Z,87.30
2018-01-24T23:27:56.244Z,86.60
2018-01-24T23:30:23.820Z,86.30
2018-01-24T23:32:51.279Z,86.30
2018-01-24T23:35:18.730Z,85.90
2018-01-24T23:37:46.175Z,86.00
2018-01-24T23:40:13.622Z,86.10
2018-01-24T23:42:41.078Z,86.10
2018-01-24T23:45:08.529Z,85.70
2018-01-24T23:47:35.976Z,85.40
2018-01-24T23:50:03.416Z,85.20
2018-01-24T23:52:31.627Z,84.10
2018-01-24T23:54:59.579Z,84.10
2018-01-24T23:57:27.027Z,83.60
2018-01-24T23:59:54.471Z,83.50
